Time;durP1;ratioP1;P1;durP2;ratioP2;P2;SDS_P1;SDS_P2;PMS_P1;PMS_P2;Temp;Humidity;BMP_temperature;BMP_pressure;BME280_temperature;BME280_humidity;BME280_pressure;Samples;Min_cycle;Max_cycle;Signal;HPM_P1;HPM_P2
2023/04/15 00:01:36;;;;;;;4.20;2.85;;;13.70;65.30;;;;;;5017411;28;20034;-85
2023/04/15 00:04:01;;;;;;;3.55;2.80;;;13.70;65.30;;;;;;5034038;28;20486;-86
2023/04/15 00:06:27;;;;;;;5.60;3.17;;;13.70;65.40;;;;;;5034171;28;20073;-83
2023/04/15 00:08:53;;;;;;;4.45;3.00;;;13.70;65.40;;;;;;5033139;28;20068;-85
2023/04/15 00:11:19;;;;;;;4.88;3.20;;;13.70;65.50;;;;;;5017045;28;20029;-85
2023/04/15 00:13:45;;;;;;;3.88;2.92;;;13.60;65.50;;;;;;5016492;28;20083;-85
2023/04/15 00:16:11;;;;;;;4.32;2.88;;;13.60;65.50;;;;;;5016514;28;20462;-84
2023/04/15 00:18:37;;;;;;;4.13;3.30;;;13.60;65.50;;;;;;5033369;28;20037;-83
2023/04/15 00:21:03;;;;;;;4.57;3.10;;;13.50;65.50;;;;;;5032812;28;20022;-85
2023/04/15 00:23:30;;;;;;;4.95;3.40;;;13.50;65.50;;;;;;5016344;28;20061;-84
2023/04/15 00:25:56;;;;;;;4.40;3.40;;;13.50;65.50;;;;;;5032582;28;20025;-84
2023/04/15 00:28:24;;;;;;;4.85;3.10;;;13.40;65.50;;;;;;5017821;28;20038;-85
2023/04/15 00:30:50;;;;;;;4.20;3.28;;;13.40;65.60;;;;;;5019931;28;20053;-85
2023/04/15 00:33:16;;;;;;;3.35;2.95;;;13.40;65.60;;;;;;5036984;28;20478;-86
2023/04/15 00:35:42;;;;;;;3.85;3.03;;;13.40;65.60;;;;;;5004470;28;20030;-88
2023/04/15 00:38:08;;;;;;;5.43;3.40;;;13.40;65.70;;;;;;5037330;28;20056;-85
2023/04/15 00:40:34;;;;;;;3.85;3.08;;;13.30;65.70;;;;;;5003295;28;20045;-86
2023/04/15 00:43:00;;;;;;;3.58;2.97;;;13.30;65.80;;;;;;5036235;28;20030;-88
2023/04/15 00:45:29;;;;;;;4.68;2.97;;;13.30;65.80;;;;;;5003565;28;20026;-84
2023/04/15 00:47:55;;;;;;;4.22;3.20;;;13.30;65.90;;;;;;5036402;28;20030;-84
2023/04/15 00:50:21;;;;;;;4.88;3.28;;;13.30;65.90;;;;;;5036330;28;20044;-87
2023/04/15 00:52:48;;;;;;;3.92;3.10;;;13.20;65.90;;;;;;5019777;28;20033;-85
2023/04/15 00:55:14;;;;;;;4.70;3.40;;;13.20;66.00;;;;;;5037232;28;20021;-86
2023/04/15 00:57:40;;;;;;;4.97;2.97;;;13.10;65.90;;;;;;5019373;28;20041;-83
2023/04/15 01:00:07;;;;;;;3.88;3.05;;;13.10;66.00;;;;;;5036535;28;20171;-85
2023/04/15 01:02:35;;;;;;;4.43;3.35;;;13.10;66.00;;;;;;5003767;28;20040;-84
2023/04/15 01:05:01;;;;;;;4.13;3.05;;;13.10;66.10;;;;;;5040406;28;20029;-84
2023/04/15 01:07:27;;;;;;;4.00;2.90;;;13.10;66.10;;;;;;5024968;28;20042;-83
2023/04/15 01:09:52;;;;;;;4.50;3.05;;;13.00;66.10;;;;;;5040267;28;20101;-83
2023/04/15 01:12:19;;;;;;;4.90;3.13;;;13.00;66.10;;;;;;5037022;28;20030;-83
2023/04/15 01:14:45;;;;;;;3.80;3.13;;;13.00;66.20;;;;;;5020114;28;20041;-85
2023/04/15 01:17:12;;;;;;;4.53;3.00;;;13.00;66.20;;;;;;5019219;28;20069;-84
2023/04/15 01:19:39;;;;;;;3.95;3.10;;;13.00;66.30;;;;;;5019795;28;20032;-83
2023/04/15 01:22:05;;;;;;;4.68;3.03;;;13.00;66.30;;;;;;5003289;28;20041;-84
2023/04/15 01:24:32;;;;;;;3.50;2.92;;;12.90;66.30;;;;;;5035400;28;20381;-83
2023/04/15 01:26:58;;;;;;;4.50;3.20;;;12.90;66.30;;;;;;5035598;28;20033;-84
2023/04/15 01:29:23;;;;;;;5.18;3.70;;;12.90;66.40;;;;;;5019030;28;20038;-84
2023/04/15 01:31:51;;;;;;;5.60;3.30;;;12.80;66.30;;;;;;5019795;28;20037;-83
2023/04/15 01:34:17;;;;;;;4.20;3.10;;;12.80;66.40;;;;;;5018633;28;20025;-83
2023/04/15 01:36:43;;;;;;;3.75;2.95;;;12.80;66.40;;;;;;5035585;28;20041;-84
2023/04/15 01:39:09;;;;;;;4.03;3.00;;;12.80;66.40;;;;;;5018415;28;20054;-84
2023/04/15 01:41:35;;;;;;;4.15;3.17;;;12.80;66.40;;;;;;5035269;28;20029;-83
2023/04/15 01:44:01;;;;;;;4.18;3.30;;;12.80;66.50;;;;;;5035547;28;20029;-83
2023/04/15 01:46:26;;;;;;;4.65;3.28;;;12.70;66.40;;;;;;5035275;28;20080;-83
2023/04/15 01:48:52;;;;;;;4.18;3.10;;;12.70;66.50;;;;;;5035413;28;20040;-83
2023/04/15 01:51:18;;;;;;;5.80;3.45;;;12.70;66.50;;;;;;5035124;28;20437;-83
2023/04/15 01:53:48;;;;;;;4.63;3.33;;;12.70;66.50;;;;;;5019765;28;20113;-83
2023/04/15 01:56:14;;;;;;;4.88;3.25;;;12.60;67.20;;;;;;5019307;28;20069;-84
2023/04/15 01:58:42;;;;;;;4.40;3.00;;;12.60;66.60;;;;;;5019318;28;20084;-83
2023/04/15 02:01:10;;;;;;;4.35;3.20;;;12.60;66.60;;;;;;5018354;28;20025;-84
2023/04/15 02:03:36;;;;;;;4.57;3.50;;;12.60;66.60;;;;;;5018532;28;20116;-83
2023/04/15 02:06:03;;;;;;;4.32;3.45;;;12.60;66.70;;;;;;5018222;28;20022;-83
2023/04/15 02:08:29;;;;;;;4.03;3.33;;;12.60;66.70;;;;;;5018264;28;20099;-83
2023/04/15 02:10:55;;;;;;;4.40;3.10;;;12.50;66.70;;;;;;5018762;28;20544;-87
2023/04/15 02:13:21;;;;;;;3.60;3.13;;;12.50;66.80;;;;;;5034534;28;20394;-88
2023/04/15 02:15:49;;;;;;;5.07;3.42;;;12.50;66.80;;;;;;5018234;28;20025;-88
2023/04/15 02:18:17;;;;;;;5.45;3.20;;;12.40;66.70;;;;;;5019020;28;20490;-84
2023/04/15 02:20:43;;;;;;;5.10;3.55;;;12.40;66.80;;;;;;5018153;28;20124;-83
2023/04/15 02:23:10;;;;;;;4.53;3.08;;;12.40;66.80;;;;;;5001752;28;20029;-84
2023/04/15 02:25:37;;;;;;;4.55;3.33;;;12.40;66.80;;;;;;5035769;28;20029;-83
2023/04/15 02:28:05;;;;;;;5.88;3.25;;;12.40;66.90;;;;;;5034243;28;20045;-83
2023/04/15 02:30:32;;;;;;;4.88;3.33;;;12.30;66.80;;;;;;5018044;28;20049;-84
2023/04/15 02:33:01;;;;;;;5.15;3.30;;;12.40;66.90;;;;;;5018442;28;20037;-84
2023/04/15 02:35:26;;;;;;;4.80;3.60;;;12.30;66.80;;;;;;5034272;28;20391;-83
2023/04/15 02:37:53;;;;;;;4.30;3.30;;;12.30;66.80;;;;;;5001004;28;20041;-83
2023/04/15 02:40:18;;;;;;;4.03;3.08;;;12.30;66.90;;;;;;5017733;28;20056;-83
2023/04/15 02:42:44;;;;;;;4.55;3.28;;;12.30;66.90;;;;;;5017539;28;20036;-87
2023/04/15 02:45:13;;;;;;;4.72;3.08;;;12.30;66.90;;;;;;5018223;28;20025;-83
2023/04/15 02:47:40;;;;;;;4.50;3.03;;;12.20;67.00;;;;;;5017491;28;20060;-83
2023/04/15 02:50:11;;;;;;;4.22;3.03;;;12.20;67.00;;;;;;5033862;28;20025;-81
2023/04/15 02:52:42;;;;;;;4.95;3.25;;;12.20;67.00;;;;;;5016344;28;20026;-81
2023/04/15 02:55:09;;;;;;;5.10;3.70;;;12.20;67.10;;;;;;5032933;28;20040;-81
2023/04/15 02:57:40;;;;;;;4.93;3.47;;;12.20;67.10;;;;;;5032531;28;20033;-80
2023/04/15 03:00:10;;;;;;;4.30;3.22;;;12.20;67.20;;;;;;5016463;28;20038;-81
2023/04/15 03:02:38;;;;;;;5.68;3.35;;;12.10;67.10;;;;;;5032893;28;20025;-81
2023/04/15 03:05:05;;;;;;;3.97;3.15;;;12.10;67.20;;;;;;5000104;28;20041;-79
2023/04/15 03:07:31;;;;;;;5.00;3.58;;;12.10;67.20;;;;;;5016944;28;20092;-81
2023/04/15 03:09:58;;;;;;;4.13;3.20;;;12.10;67.20;;;;;;4999869;28;20030;-81
2023/04/15 03:12:24;;;;;;;4.13;3.28;;;12.10;67.20;;;;;;5016065;28;20478;-83
2023/04/15 03:14:52;;;;;;;4.28;3.13;;;12.10;67.30;;;;;;5000677;28;20072;-81
2023/04/15 03:17:22;;;;;;;4.00;3.15;;;12.10;67.30;;;;;;5032362;28;20444;-81
2023/04/15 03:19:48;;;;;;;4.20;3.22;;;12.00;67.30;;;;;;5016124;28;20028;-82
2023/04/15 03:22:14;;;;;;;4.60;3.22;;;12.00;67.30;;;;;;5000040;28;20068;-81
2023/04/15 03:24:40;;;;;;;5.80;3.65;;;12.00;67.40;;;;;;5016641;28;20065;-81
2023/04/15 03:27:06;;;;;;;5.35;3.58;;;12.00;67.40;;;;;;4999692;28;20033;-82
2023/04/15 03:29:33;;;;;;;4.63;3.67;;;11.90;67.40;;;;;;4999919;28;20117;-81
2023/04/15 03:31:59;;;;;;;4.63;3.50;;;11.90;67.30;;;;;;5015802;28;20053;-81
2023/04/15 03:34:25;;;;;;;5.22;3.28;;;11.90;67.40;;;;;;5016651;28;20088;-80
2023/04/15 03:36:51;;;;;;;5.03;3.40;;;11.90;67.40;;;;;;5015920;28;20033;-81
2023/04/15 03:39:17;;;;;;;4.90;3.35;;;11.90;67.50;;;;;;5015454;28;20391;-81
2023/04/15 03:41:42;;;;;;;4.57;3.55;;;11.80;67.40;;;;;;5031965;28;20481;-79
2023/04/15 03:44:08;;;;;;;4.82;3.42;;;11.90;67.50;;;;;;5015888;28;20088;-81
2023/04/15 03:46:34;;;;;;;5.32;3.58;;;11.80;67.50;;;;;;5015870;28;20038;-81
2023/04/15 03:49:00;;;;;;;4.45;3.47;;;11.80;67.50;;;;;;5015652;28;20036;-82
2023/04/15 03:51:26;;;;;;;4.90;3.60;;;11.80;67.50;;;;;;5015655;28;20026;-81
2023/04/15 03:53:52;;;;;;;4.63;3.47;;;11.80;67.60;;;;;;5032240;28;20036;-81
2023/04/15 03:56:17;;;;;;;3.90;3.00;;;11.80;67.70;;;;;;5032002;28;20048;-81
2023/04/15 03:58:43;;;;;;;4.75;3.42;;;11.80;67.70;;;;;;5032036;28;20072;-81
2023/04/15 04:01:09;;;;;;;4.45;3.55;;;11.70;67.70;;;;;;5015765;28;20034;-82
2023/04/15 04:03:36;;;;;;;4.80;3.70;;;11.70;67.70;;;;;;5020036;28;20029;-83
2023/04/15 04:06:01;;;;;;;5.22;3.70;;;11.70;67.70;;;;;;5036560;28;20049;-81
2023/04/15 04:08:27;;;;;;;5.70;3.78;;;11.70;67.70;;;;;;5019930;28;20036;-82
2023/04/15 04:10:53;;;;;;;4.57;3.67;;;11.70;67.80;;;;;;5035764;28;20033;-81
2023/04/15 04:13:18;;;;;;;5.10;3.75;;;11.60;67.70;;;;;;5019364;28;20025;-81
2023/04/15 04:15:44;;;;;;;4.10;3.15;;;11.60;67.80;;;;;;5003233;28;20034;-82
2023/04/15 04:18:10;;;;;;;5.13;3.70;;;11.60;67.90;;;;;;5003511;28;20065;-81
2023/04/15 04:20:36;;;;;;;5.03;3.70;;;11.60;67.90;;;;;;5003026;28;20485;-82
2023/04/15 04:23:01;;;;;;;4.57;3.30;;;11.60;68.00;;;;;;5018813;28;20105;-81
2023/04/15 04:25:27;;;;;;;4.90;3.60;;;11.60;68.00;;;;;;5019171;28;20041;-81
2023/04/15 04:27:53;;;;;;;4.60;3.65;;;11.60;68.70;;;;;;5002781;28;20029;-81
2023/04/15 04:30:19;;;;;;;4.60;3.20;;;11.50;68.00;;;;;;5035659;28;20037;-81
2023/04/15 04:32:44;;;;;;;5.43;3.47;;;11.50;68.00;;;;;;5019278;28;20100;-82
2023/04/15 04:35:10;;;;;;;4.93;3.60;;;11.50;68.10;;;;;;5002540;28;20033;-81
2023/04/15 04:37:36;;;;;;;4.43;3.28;;;11.50;68.20;;;;;;5035322;28;20033;-81
2023/04/15 04:40:03;;;;;;;5.53;4.10;;;11.50;68.20;;;;;;5019024;28;20446;-80
2023/04/15 04:42:29;;;;;;;5.03;3.75;;;11.40;68.20;;;;;;5019152;28;20087;-81
2023/04/15 04:44:54;;;;;;;4.68;3.53;;;11.40;68.20;;;;;;5018785;28;20029;-80
2023/04/15 04:47:20;;;;;;;4.80;3.50;;;11.40;68.20;;;;;;5002624;28;20033;-81
2023/04/15 04:49:46;;;;;;;5.60;4.18;;;11.40;68.20;;;;;;5002613;28;20036;-81
2023/04/15 04:52:12;;;;;;;4.88;3.78;;;11.40;68.20;;;;;;5035076;28;20112;-81
2023/04/15 04:54:38;;;;;;;5.60;3.83;;;11.40;68.30;;;;;;5018547;28;20390;-81
2023/04/15 04:57:03;;;;;;;5.35;3.90;;;11.30;68.30;;;;;;5019042;28;20037;-81
2023/04/15 04:59:29;;;;;;;5.68;3.70;;;11.30;68.40;;;;;;5018575;28;20501;-80
2023/04/15 05:01:55;;;;;;;5.28;3.70;;;11.30;68.40;;;;;;5018821;28;20025;-80
2023/04/15 05:04:21;;;;;;;5.28;3.58;;;11.30;68.50;;;;;;5018215;28;20394;-81
2023/04/15 05:06:46;;;;;;;5.55;4.22;;;11.30;68.60;;;;;;5034787;28;20037;-81
2023/04/15 05:09:12;;;;;;;4.95;3.92;;;11.30;68.60;;;;;;5018186;28;20030;-79
2023/04/15 05:11:38;;;;;;;4.90;3.45;;;11.20;68.60;;;;;;5034430;28;20031;-81
2023/04/15 05:14:04;;;;;;;5.28;3.88;;;11.20;68.70;;;;;;5001698;28;20033;-81
2023/04/15 05:16:29;;;;;;;6.72;3.85;;;11.20;68.70;;;;;;5017931;28;20065;-81
2023/04/15 05:18:55;;;;;;;4.85;3.65;;;11.20;68.70;;;;;;5001724;28;20601;-81
2023/04/15 05:21:21;;;;;;;5.28;3.88;;;11.10;68.70;;;;;;5018010;28;20029;-81
2023/04/15 05:23:47;;;;;;;5.18;3.78;;;11.10;68.70;;;;;;5018034;28;20029;-81
2023/04/15 05:26:12;;;;;;;5.88;4.10;;;11.10;68.70;;;;;;5001483;28;20025;-81
2023/04/15 05:28:38;;;;;;;5.25;3.90;;;11.10;68.80;;;;;;5034578;28;20068;-83
2023/04/15 05:31:04;;;;;;;5.25;3.83;;;11.10;68.80;;;;;;5018628;28;20033;-80
2023/04/15 05:33:30;;;;;;;5.88;3.90;;;11.10;68.90;;;;;;5018393;28;20036;-82
2023/04/15 05:35:56;;;;;;;5.10;3.90;;;11.10;68.90;;;;;;5017939;28;20393;-80
2023/04/15 05:38:22;;;;;;;5.53;3.83;;;11.00;68.90;;;;;;5001104;28;20048;-80
2023/04/15 05:40:48;;;;;;;6.05;4.60;;;11.00;69.50;;;;;;5017584;28;20053;-81
2023/04/15 05:43:13;;;;;;;5.65;4.00;;;11.00;69.00;;;;;;5017759;28;20037;-81
2023/04/15 05:45:39;;;;;;;5.70;4.20;;;11.00;69.00;;;;;;5001551;28;20080;-81
2023/04/15 05:48:05;;;;;;;5.20;3.70;;;11.00;69.10;;;;;;5001205;28;20140;-81
2023/04/15 05:50:31;;;;;;;4.78;3.90;;;11.00;69.10;;;;;;5018083;28;20049;-82
2023/04/15 05:52:57;;;;;;;5.68;4.20;;;10.90;69.10;;;;;;5017330;28;20515;-82
2023/04/15 05:55:23;;;;;;;4.95;3.80;;;10.90;69.10;;;;;;5033835;28;20040;-81
2023/04/15 05:57:49;;;;;;;5.50;4.13;;;10.90;69.10;;;;;;5000597;28;20063;-82
2023/04/15 06:00:15;;;;;;;5.05;4.03;;;10.90;69.10;;;;;;5033748;28;20112;-82
2023/04/15 06:02:41;;;;;;;5.35;4.38;;;10.90;69.10;;;;;;5017118;28;20045;-81
2023/04/15 06:05:10;;;;;;;5.38;4.10;;;10.90;69.20;;;;;;5033322;28;20061;-81
2023/04/15 06:07:37;;;;;;;5.53;4.20;;;10.90;69.20;;;;;;5017135;28;20021;-82
2023/04/15 06:10:04;;;;;;;5.78;4.10;;;10.90;69.30;;;;;;5033778;28;20501;-81
2023/04/15 06:12:30;;;;;;;5.70;3.95;;;10.90;69.30;;;;;;5016942;28;20032;-81
2023/04/15 06:14:56;;;;;;;5.97;3.97;;;10.90;69.40;;;;;;5017930;28;20462;-81
2023/04/15 06:17:22;;;;;;;5.43;4.32;;;10.90;69.40;;;;;;5016995;28;20033;-81
2023/04/15 06:19:50;;;;;;;5.85;4.45;;;10.90;69.40;;;;;;5033358;28;20556;-81
2023/04/15 06:22:16;;;;;;;6.47;4.35;;;10.90;69.40;;;;;;5017672;28;20065;-81
2023/04/15 06:24:42;;;;;;;5.60;4.53;;;10.90;69.40;;;;;;5000413;28;20458;-82
2023/04/15 06:27:07;;;;;;;5.60;4.28;;;10.90;69.50;;;;;;5033294;28;20037;-81
2023/04/15 06:29:33;;;;;;;6.22;4.50;;;10.90;69.50;;;;;;5017025;28;20030;-82
2023/04/15 06:31:59;;;;;;;5.57;4.43;;;10.90;69.50;;;;;;5016801;28;20034;-80
2023/04/15 06:34:25;;;;;;;6.00;4.10;;;10.90;69.50;;;;;;5000415;28;20037;-81
2023/04/15 06:36:50;;;;;;;4.97;3.88;;;10.90;69.50;;;;;;5000090;28;20478;-81
2023/04/15 06:39:16;;;;;;;5.40;4.03;;;10.90;70.20;;;;;;5016113;28;20041;-82
2023/04/15 06:41:42;;;;;;;6.15;4.40;;;10.90;69.50;;;;;;5016434;28;20038;-83
2023/04/15 06:44:08;;;;;;;6.30;4.60;;;11.00;69.60;;;;;;5016666;28;20562;-80
2023/04/15 06:46:33;;;;;;;6.00;4.63;;;11.00;69.70;;;;;;5016284;28;20116;-82
2023/04/15 06:48:59;;;;;;;5.85;4.25;;;11.00;69.70;;;;;;5016668;28;20040;-81
2023/04/15 06:51:25;;;;;;;6.00;4.82;;;11.00;69.70;;;;;;4999653;28;20433;-82
2023/04/15 06:53:51;;;;;;;6.75;4.93;;;11.00;69.70;;;;;;5016356;28;20033;-80
2023/04/15 06:56:17;;;;;;;5.70;4.40;;;11.00;69.70;;;;;;4999481;28;20434;-81
2023/04/15 06:58:42;;;;;;;5.32;3.97;;;11.00;69.70;;;;;;5032938;28;20120;-80
2023/04/15 07:01:08;;;;;;;6.38;4.80;;;11.00;69.70;;;;;;5017044;28;20033;-80
2023/04/15 07:03:34;;;;;;;6.13;4.75;;;11.00;69.60;;;;;;5032513;28;20088;-81
2023/04/15 07:06:00;;;;;;;5.82;4.18;;;11.10;69.80;;;;;;5032341;28;20092;-80
2023/04/15 07:08:26;;;;;;;4.75;3.65;;;11.00;69.70;;;;;;4999865;28;20075;-81
2023/04/15 07:10:52;;;;;;;6.28;4.20;;;11.00;69.70;;;;;;5015951;28;20029;-80
2023/04/15 07:13:18;;;;;;;6.28;4.22;;;11.10;69.80;;;;;;5032570;28;20037;-81
2023/04/15 07:15:44;;;;;;;5.68;4.40;;;11.10;69.80;;;;;;5000002;28;20211;-80
2023/04/15 07:18:10;;;;;;;5.40;4.00;;;11.10;69.80;;;;;;4999104;28;20401;-80
2023/04/15 07:20:36;;;;;;;5.28;4.10;;;11.10;69.70;;;;;;5032514;28;20029;-81
2023/04/15 07:23:02;;;;;;;6.13;4.57;;;11.10;69.70;;;;;;5031965;28;20129;-81
2023/04/15 07:25:28;;;;;;;5.57;4.07;;;11.10;69.70;;;;;;5016096;28;20036;-80
2023/04/15 07:27:53;;;;;;;6.60;4.75;;;11.20;69.70;;;;;;5032059;28;20041;-80
2023/04/15 07:30:19;;;;;;;5.55;4.30;;;11.20;69.70;;;;;;5015628;28;20073;-80
2023/04/15 07:32:45;;;;;;;5.80;4.22;;;11.20;69.70;;;;;;5015777;28;20111;-82
2023/04/15 07:35:11;;;;;;;5.50;4.00;;;11.20;69.70;;;;;;4999377;28;20033;-81
2023/04/15 07:37:36;;;;;;;6.13;4.55;;;11.20;69.70;;;;;;5014887;28;20038;-81
2023/04/15 07:40:03;;;;;;;5.28;3.95;;;11.20;69.70;;;;;;4999130;28;20053;-81
2023/04/15 07:42:29;;;;;;;5.90;4.53;;;11.20;69.80;;;;;;5032019;28;20030;-81
2023/04/15 07:44:56;;;;;;;5.40;4.05;;;11.20;69.70;;;;;;5032802;28;20109;-81
2023/04/15 07:47:21;;;;;;;6.47;4.28;;;11.20;69.70;;;;;;5032508;28;20498;-81
2023/04/15 07:49:47;;;;;;;6.50;4.55;;;11.30;69.80;;;;;;5031675;28;20064;-84
2023/04/15 07:52:13;;;;;;;5.72;4.15;;;11.30;69.80;;;;;;5016403;28;20033;-81
2023/04/15 07:54:38;;;;;;;6.68;4.53;;;11.30;69.80;;;;;;5015443;28;20466;-81
2023/04/15 07:57:04;;;;;;;5.60;4.05;;;11.30;69.80;;;;;;5031383;28;20046;-81
2023/04/15 07:59:32;;;;;;;5.60;3.95;;;11.30;69.80;;;;;;4999135;28;20029;-81
2023/04/15 08:01:58;;;;;;;5.43;3.90;;;11.30;69.80;;;;;;5015602;28;20061;-81
2023/04/15 08:04:24;;;;;;;6.05;4.68;;;11.40;69.80;;;;;;5015646;28;20026;-81
2023/04/15 08:06:51;;;;;;;5.07;3.80;;;11.40;69.80;;;;;;4998964;28;20039;-79
2023/04/15 08:09:17;;;;;;;6.32;4.65;;;11.40;69.80;;;;;;5015388;28;20033;-81
2023/04/15 08:11:42;;;;;;;5.57;4.18;;;11.50;69.80;;;;;;5031826;28;20044;-81
2023/04/15 08:14:08;;;;;;;5.22;4.15;;;11.50;69.80;;;;;;4998938;28;20041;-80
2023/04/15 08:16:34;;;;;;;5.45;4.25;;;11.50;69.80;;;;;;5031452;28;20044;-82
2023/04/15 08:19:00;;;;;;;5.18;4.03;;;11.50;69.70;;;;;;4999713;28;20029;-82
2023/04/15 08:21:26;;;;;;;5.70;4.32;;;11.60;69.70;;;;;;5015291;28;20025;-82
2023/04/15 08:23:53;;;;;;;4.85;3.40;;;11.60;69.70;;;;;;5031733;28;20033;-81
2023/04/15 08:26:20;;;;;;;5.75;4.00;;;11.60;69.70;;;;;;5015185;28;20034;-81
2023/04/15 08:28:46;;;;;;;5.18;4.05;;;11.60;69.70;;;;;;5015409;28;20029;-82
2023/04/15 08:31:17;;;;;;;5.05;3.88;;;11.70;69.70;;;;;;5032164;28;20113;-83
2023/04/15 08:33:43;;;;;;;5.40;4.10;;;11.70;69.70;;;;;;5032866;28;20030;-81
2023/04/15 08:36:09;;;;;;;5.22;3.85;;;11.70;69.60;;;;;;5015054;28;20033;-82
2023/04/15 08:38:35;;;;;;;5.35;3.85;;;11.80;69.60;;;;;;5015134;28;20025;-82
2023/04/15 08:41:09;;;;;;;4.20;3.28;;;11.80;69.60;;;;;;5014818;28;20073;-81
2023/04/15 08:43:39;;;;;;;4.22;3.20;;;11.80;69.60;;;;;;5031798;28;20029;-80
2023/04/15 08:46:06;;;;;;;5.15;3.67;;;11.90;69.60;;;;;;5016297;28;20065;-80
2023/04/15 08:48:33;;;;;;;5.50;3.85;;;11.90;69.50;;;;;;5000092;28;20043;-81
2023/04/15 08:51:00;;;;;;;6.22;3.88;;;11.90;69.50;;;;;;5018985;28;20458;-80
2023/04/15 08:53:28;;;;;;;4.20;3.22;;;12.00;69.40;;;;;;5035811;28;20030;-80
2023/04/15 08:55:57;;;;;;;4.22;3.10;;;12.00;69.40;;;;;;5034940;28;20493;-81
2023/04/15 08:58:24;;;;;;;4.72;3.20;;;12.00;69.30;;;;;;5034852;28;20038;-81
2023/04/15 09:00:49;;;;;;;3.85;2.75;;;12.10;69.30;;;;;;5018489;28;20060;-79
2023/04/15 09:03:16;;;;;;;4.65;3.17;;;12.10;69.30;;;;;;5018508;28;20076;-81
2023/04/15 09:05:42;;;;;;;4.45;3.25;;;12.20;69.30;;;;;;5034646;28;20382;-81
2023/04/15 09:08:08;;;;;;;3.88;2.85;;;12.20;69.20;;;;;;5018342;28;20123;-80
2023/04/15 09:10:34;;;;;;;3.88;2.90;;;12.20;69.20;;;;;;5018350;28;20053;-79
2023/04/15 09:13:00;;;;;;;4.57;3.03;;;12.30;69.20;;;;;;5002266;28;20030;-79
2023/04/15 09:15:28;;;;;;;5.55;3.15;;;12.30;69.10;;;;;;5018063;28;20029;-79
2023/04/15 09:17:55;;;;;;;5.55;3.28;;;12.40;69.20;;;;;;5018108;28;20037;-79
2023/04/15 09:20:21;;;;;;;5.13;3.50;;;12.40;69.10;;;;;;5001942;28;20057;-83
2023/04/15 09:22:48;;;;;;;6.53;4.10;;;12.50;69.10;;;;;;5018915;28;20033;-79
2023/04/15 09:25:14;;;;;;;6.85;3.85;;;12.50;69.10;;;;;;5017912;28;20105;-80
2023/04/15 09:27:51;;;;;;;9.57;5.20;;;12.50;69.00;;;;;;5017876;28;20171;-80
2023/04/15 09:30:17;;;;;;;9.13;4.95;;;12.60;69.10;;;;;;5018125;28;20021;-80
2023/04/15 09:32:57;;;;;;;6.88;4.75;;;12.60;69.00;;;;;;5017820;28;20029;-80
2023/04/15 09:35:24;;;;;;;7.57;4.43;;;12.70;69.10;;;;;;5017430;28;20037;-80
2023/04/15 09:37:51;;;;;;;7.53;4.72;;;12.70;69.00;;;;;;5035011;28;20390;-79
2023/04/15 09:40:37;;;;;;;7.43;4.45;;;12.80;69.00;;;;;;5048578;28;20454;-80
2023/04/15 09:43:04;;;;;;;7.43;4.43;;;12.80;69.00;;;;;;4989204;28;20466;-80
2023/04/15 09:45:32;;;;;;;6.60;4.07;;;12.80;68.90;;;;;;5004672;28;20075;-79
2023/04/15 09:47:59;;;;;;;6.30;4.30;;;12.90;68.80;;;;;;5020890;28;20044;-79
2023/04/15 09:50:28;;;;;;;6.15;3.78;;;12.90;68.80;;;;;;5037105;28;20025;-79
2023/04/15 09:52:55;;;;;;;4.97;3.35;;;13.00;68.90;;;;;;5020567;28;20112;-80
2023/04/15 09:55:21;;;;;;;6.15;3.50;;;13.00;68.80;;;;;;5020592;28;20035;-79
2023/04/15 09:57:47;;;;;;;4.15;3.10;;;13.10;68.80;;;;;;5020560;28;20079;-82
2023/04/15 10:00:13;;;;;;;5.03;3.40;;;13.10;68.70;;;;;;5020147;28;20025;-80
2023/04/15 10:02:43;;;;;;;4.78;3.08;;;13.20;68.70;;;;;;5004437;28;20029;-80
2023/04/15 10:05:14;;;;;;;5.05;3.10;;;13.20;68.60;;;;;;5036850;28;20033;-80
2023/04/15 10:07:41;;;;;;;3.83;2.92;;;13.30;68.60;;;;;;5004106;28;20448;-80
2023/04/15 10:10:08;;;;;;;4.35;2.88;;;13.40;68.60;;;;;;5020547;28;20473;-79
2023/04/15 10:12:36;;;;;;;5.07;3.20;;;13.40;68.50;;;;;;5036624;28;20028;-80
2023/04/15 10:15:04;;;;;;;4.90;2.83;;;13.50;68.60;;;;;;5036880;28;20032;-80
2023/04/15 10:17:36;;;;;;;5.50;3.15;;;13.50;68.50;;;;;;5020586;28;20033;-85
2023/04/15 10:20:03;;;;;;;3.92;2.70;;;13.60;68.50;;;;;;5036520;28;20473;-81
2023/04/15 10:22:30;;;;;;;4.30;2.88;;;13.60;68.40;;;;;;5020293;28;20350;-79
2023/04/15 10:24:56;;;;;;;3.53;2.55;;;13.70;68.40;;;;;;5036668;28;20044;-81
2023/04/15 10:27:23;;;;;;;3.92;2.70;;;13.80;68.40;;;;;;5020768;28;20029;-81
2023/04/15 10:29:50;;;;;;;4.07;2.70;;;13.80;68.30;;;;;;5019926;28;20115;-83
2023/04/15 10:32:19;;;;;;;3.90;2.55;;;13.90;68.30;;;;;;5003753;28;20029;-84
2023/04/15 10:34:47;;;;;;;4.57;2.70;;;13.90;68.20;;;;;;5020468;28;20027;-85
2023/04/15 10:37:20;;;;;;;3.40;2.55;;;14.00;68.20;;;;;;5054174;28;20033;-82
2023/04/15 10:39:46;;;;;;;3.85;2.53;;;14.10;68.20;;;;;;5036709;28;20064;-82
2023/04/15 10:42:18;;;;;;;2.97;2.30;;;14.20;68.10;;;;;;5037096;28;20033;-82
2023/04/15 10:44:51;;;;;;;3.15;2.30;;;14.20;68.10;;;;;;5020275;28;20171;-83
2023/04/15 10:47:20;;;;;;;3.15;2.25;;;14.30;68.00;;;;;;5020251;28;20374;-84
2023/04/15 10:49:49;;;;;;;3.53;2.50;;;14.40;67.90;;;;;;5036356;28;20033;-83
2023/04/15 10:52:17;;;;;;;3.05;2.20;;;14.40;67.80;;;;;;5035890;28;20025;-83
2023/04/15 10:54:43;;;;;;;2.97;2.30;;;14.50;67.80;;;;;;5036074;28;20064;-83
2023/04/15 10:57:13;;;;;;;4.32;2.30;;;14.60;67.70;;;;;;5020015;28;20037;-83
2023/04/15 10:59:57;;;;;;;3.88;2.60;;;14.60;67.70;;;;;;5019982;28;20028;-83
2023/04/15 11:02:43;;;;;;;3.38;2.45;;;14.70;67.70;;;;;;5036481;28;20385;-80
2023/04/15 11:05:10;;;;;;;3.88;2.42;;;14.80;67.60;;;;;;5020017;28;20021;-81
2023/04/15 11:07:43;;;;;;;3.60;2.05;;;14.90;67.50;;;;;;5036160;28;20025;-83
2023/04/15 11:10:24;;;;;;;2.88;2.00;;;14.90;67.40;;;;;;5036453;28;20457;-80
2023/04/15 11:12:58;;;;;;;3.45;2.22;;;15.00;67.40;;;;;;5018860;28;20025;-80
2023/04/15 11:15:39;;;;;;;2.70;2.10;;;15.00;67.30;;;;;;5035676;28;20493;-80
2023/04/15 11:18:15;;;;;;;3.05;2.30;;;15.10;67.40;;;;;;5053145;28;20568;-80
2023/04/15 11:20:47;;;;;;;3.17;2.38;;;15.20;67.70;;;;;;5019871;28;20166;-80
2023/04/15 11:23:15;;;;;;;2.95;2.10;;;15.20;67.30;;;;;;5019148;28;20074;-80
2023/04/15 11:25:42;;;;;;;3.05;2.25;;;15.30;67.30;;;;;;5019096;28;20033;-79
2023/04/15 11:28:08;;;;;;;2.90;2.10;;;15.30;67.30;;;;;;5002448;28;20119;-79
2023/04/15 11:30:36;;;;;;;3.00;2.00;;;15.40;67.30;;;;;;5002808;28;20115;-80
2023/04/15 11:33:11;;;;;;;2.38;1.77;;;15.40;67.20;;;;;;5019078;28;20033;-79
2023/04/15 11:35:36;;;;;;;2.95;2.13;;;15.50;67.10;;;;;;5036372;28;20051;-79
2023/04/15 11:38:15;;;;;;;2.38;1.75;;;15.50;67.00;;;;;;5035246;28;20485;-80
2023/04/15 11:40:42;;;;;;;1.90;1.70;;;15.60;67.10;;;;;;5018776;28;20140;-81
2023/04/15 11:43:10;;;;;;;2.03;1.73;;;15.70;67.00;;;;;;5035224;28;20111;-80
2023/04/15 11:45:46;;;;;;;2.35;1.98;;;15.70;66.90;;;;;;5019118;28;20036;-80
2023/04/15 11:48:12;;;;;;;2.75;1.85;;;15.70;66.80;;;;;;5035202;28;20444;-79
2023/04/15 11:50:40;;;;;;;2.58;2.00;;;15.80;66.80;;;;;;5035188;28;20115;-80
2023/04/15 11:53:07;;;;;;;2.40;1.88;;;15.80;66.70;;;;;;5035335;28;20088;-80
2023/04/15 11:55:48;;;;;;;1.50;1.40;;;15.90;66.70;;;;;;5018872;28;20031;-80
2023/04/15 11:58:22;;;;;;;1.60;1.50;;;15.90;66.70;;;;;;5019357;28;20033;-79
2023/04/15 12:00:52;;;;;;;1.77;1.60;;;16.00;66.60;;;;;;5035342;28;20021;-79
2023/04/15 12:03:36;;;;;;;1.67;1.40;;;16.00;66.50;;;;;;5019008;28;20485;-80
2023/04/15 12:06:05;;;;;;;1.73;1.50;;;16.10;66.40;;;;;;5018540;28;20044;-79
2023/04/15 12:08:59;;;;;;;1.70;1.60;;;16.10;66.30;;;;;;5018768;28;20064;-81
2023/04/15 12:11:47;;;;;;;1.55;1.45;;;16.20;66.30;;;;;;5035169;28;20116;-79
2023/04/15 12:14:27;;;;;;;1.27;1.17;;;16.20;66.30;;;;;;5035391;28;20039;-80
2023/04/15 12:16:57;;;;;;;1.83;1.38;;;16.30;66.30;;;;;;5018967;28;20033;-78
2023/04/15 12:19:44;;;;;;;1.48;1.33;;;16.30;66.20;;;;;;5018514;28;20021;-80
2023/04/15 12:22:12;;;;;;;1.45;1.35;;;16.30;66.10;;;;;;5034889;28;20033;-79
2023/04/15 12:24:39;;;;;;;1.75;1.48;;;16.40;66.00;;;;;;5022545;28;20052;-79
2023/04/15 12:27:10;;;;;;;1.30;1.20;;;16.40;65.90;;;;;;5006028;28;20048;-79
2023/04/15 12:29:37;;;;;;;1.70;1.25;;;16.50;65.80;;;;;;5038889;28;20025;-79
2023/04/15 12:32:14;;;;;;;3.97;1.30;;;16.50;65.60;;;;;;5038547;28;20020;-80
2023/04/15 12:34:51;;;;;;;1.40;1.25;;;16.60;65.60;;;;;;5022158;28;20032;-79
2023/04/15 12:37:18;;;;;;;1.40;1.30;;;16.60;65.40;;;;;;5038891;28;20037;-80
2023/04/15 12:39:47;;;;;;;1.33;1.20;;;16.60;65.30;;;;;;5005723;28;20053;-80
2023/04/15 12:42:14;;;;;;;1.30;1.20;;;16.70;65.40;;;;;;5038354;28;20029;-79
2023/04/15 12:44:40;;;;;;;1.30;1.20;;;16.70;65.40;;;;;;5022288;28;20039;-79
2023/04/15 12:47:07;;;;;;;1.40;1.27;;;16.80;65.40;;;;;;5005969;28;20039;-79
2023/04/15 12:49:33;;;;;;;1.30;1.20;;;16.80;65.30;;;;;;5056539;28;20416;-78